createdAt,value
2023-02-15T00:02:43.693Z,100.00
2023-02-15T00:05:23.750Z,100.00
2023-02-15T00:08:17.690Z,100.00
2023-02-15T00:11:22.670Z,100.00
2023-02-15T00:13:55.771Z,100.00
2023-02-15T00:16:43.729Z,100.00
2023-02-15T00:19:18.815Z,100.00
2023-02-15T00:22:05.672Z,100.00
2023-02-15T00:24:39.770Z,100.00
2023-02-15T00:27:26.685Z,100.00
2023-02-15T00:29:59.785Z,100.00
2023-02-15T00:32:46.677Z,100.00
2023-02-15T00:35:19.786Z,100.00
2023-02-15T00:38:06.666Z,100.00
2023-02-15T00:40:39.803Z,100.00
2023-02-15T00:43:26.684Z,100.00
2023-02-15T00:46:00.070Z,100.00
2023-02-15T00:48:46.694Z,100.00
2023-02-15T00:51:19.797Z,100.00
2023-02-15T00:54:06.724Z,100.00
2023-02-15T00:57:00.689Z,100.00
2023-02-15T00:59:47.710Z,100.00
2023-02-15T01:02:20.792Z,100.00
2023-02-15T01:05:07.709Z,100.00
2023-02-15T01:07:47.716Z,100.00
2023-02-15T01:10:42.680Z,100.00
2023-02-15T01:13:36.708Z,100.00
2023-02-15T01:16:23.806Z,100.00
2023-02-15T01:19:03.790Z,100.00
2023-02-15T01:21:57.717Z,100.00
2023-02-15T01:24:44.712Z,100.00
2023-02-15T01:27:17.807Z,100.00
2023-02-15T01:30:04.710Z,100.00
2023-02-15T01:32:38.809Z,100.00
2023-02-15T01:35:25.701Z,100.00
2023-02-15T01:37:58.888Z,100.00
2023-02-15T01:40:46.714Z,100.00
2023-02-15T01:43:19.812Z,100.00
2023-02-15T01:46:06.758Z,100.00
2023-02-15T01:48:46.658Z,100.00
2023-02-15T01:51:36.738Z,100.00
2023-02-15T01:54:25.884Z,100.00
2023-02-15T01:57:17.719Z,100.00
2023-02-15T01:59:54.809Z,100.00
2023-02-15T02:02:41.767Z,100.00
2023-02-15T02:05:21.760Z,100.00
2023-02-15T02:08:19.709Z,100.00
2023-02-15T02:11:06.725Z,100.00
2023-02-15T02:13:39.829Z,100.00
2023-02-15T02:16:34.733Z,100.00
2023-02-15T02:19:36.715Z,100.00
2023-02-15T02:23:03.743Z,100.00
2023-02-15T02:26:09.722Z,100.00
2023-02-15T02:29:51.797Z,100.00
2023-02-15T02:36:03.969Z,100.00
2023-02-15T02:39:13.739Z,100.00
2023-02-15T02:42:53.751Z,100.00
2023-02-15T02:45:50.747Z,100.00
2023-02-15T02:48:29.827Z,100.00
2023-02-15T02:51:16.722Z,100.00
2023-02-15T02:53:56.710Z,100.00
2023-02-15T02:56:57.765Z,100.00
2023-02-15T02:59:58.720Z,100.00
2023-02-15T03:02:50.802Z,100.00
2023-02-15T03:05:28.876Z,100.00
2023-02-15T03:08:17.748Z,100.00
2023-02-15T03:10:51.832Z,100.00
2023-02-15T03:13:39.732Z,100.00
2023-02-15T03:16:27.047Z,100.00
2023-02-15T03:19:17.732Z,100.00
2023-02-15T03:22:10.196Z,100.00
2023-02-15T03:25:37.747Z,100.00
2023-02-15T03:28:22.764Z,100.00
2023-02-15T03:31:19.837Z,100.00
2023-02-15T03:34:11.786Z,100.00
2023-02-15T03:37:03.779Z,100.00
2023-02-15T03:40:28.745Z,100.00
2023-02-15T03:43:29.748Z,100.00
2023-02-15T03:46:35.776Z,100.00
2023-02-15T03:49:32.761Z,100.00
2023-02-15T03:52:07.837Z,100.00
2023-02-15T03:55:02.768Z,100.00
2023-02-15T03:58:08.750Z,100.00
2023-02-15T04:01:09.806Z,100.00
2023-02-15T04:04:10.781Z,100.00
2023-02-15T04:07:04.766Z,100.00
2023-02-15T04:10:09.803Z,100.00
2023-02-15T04:12:42.858Z,100.00
2023-02-15T04:15:48.770Z,100.00
2023-02-15T04:18:21.957Z,100.00
2023-02-15T04:21:26.776Z,100.00
2023-02-15T04:24:18.555Z,100.00
2023-02-15T04:27:05.767Z,100.00
2023-02-15T04:29:39.883Z,100.00
2023-02-15T04:32:26.757Z,100.00
2023-02-15T04:34:59.864Z,100.00
2023-02-15T04:37:47.758Z,100.00
2023-02-15T04:40:22.878Z,100.00
2023-02-15T04:43:09.800Z,100.00
2023-02-15T04:45:49.830Z,100.00
2023-02-15T04:48:36.765Z,100.00
2023-02-15T04:51:20.788Z,100.00
2023-02-15T04:54:14.796Z,100.00
2023-02-15T04:57:08.789Z,100.00
2023-02-15T05:00:02.787Z,100.00
2023-02-15T05:02:49.777Z,100.00
2023-02-15T05:05:23.882Z,100.00
2023-02-15T05:08:10.798Z,100.00
2023-02-15T05:10:43.835Z,100.00
2023-02-15T05:13:31.783Z,100.00
2023-02-15T05:16:11.787Z,100.00
2023-02-15T05:19:05.786Z,100.00
2023-02-15T05:21:59.830Z,100.00
2023-02-15T05:25:04.788Z,100.00
2023-02-15T05:28:04.960Z,100.00
2023-02-15T05:30:51.934Z,100.00
2023-02-15T05:33:32.805Z,100.00
2023-02-15T05:36:26.770Z,100.00
2023-02-15T05:39:15.800Z,100.00
2023-02-15T05:41:48.896Z,100.00
2023-02-15T05:44:35.835Z,100.00
2023-02-15T05:47:08.938Z,100.00
2023-02-15T05:49:55.785Z,100.00
2023-02-15T05:52:28.928Z,100.00
2023-02-15T05:55:22.792Z,100.00
2023-02-15T05:58:09.803Z,100.00
2023-02-15T06:00:42.893Z,100.00
2023-02-15T06:03:31.040Z,100.00
2023-02-15T06:06:11.801Z,100.00
2023-02-15T06:08:58.801Z,100.00
2023-02-15T06:11:31.922Z,100.00
2023-02-15T06:14:18.806Z,100.00
2023-02-15T06:16:52.394Z,100.00
2023-02-15T06:19:38.800Z,100.00
2023-02-15T06:22:15.014Z,100.00
2023-02-15T06:25:01.813Z,100.00
2023-02-15T06:27:41.812Z,100.00
2023-02-15T06:30:35.810Z,100.00
2023-02-15T06:33:22.812Z,100.00
2023-02-15T06:35:55.922Z,100.00
2023-02-15T06:38:42.827Z,100.00
2023-02-15T06:41:15.901Z,100.00
2023-02-15T06:44:02.842Z,100.00
2023-02-15T06:46:42.849Z,100.00
2023-02-15T06:49:36.840Z,100.00
2023-02-15T06:52:23.815Z,100.00
2023-02-15T06:55:03.812Z,100.00
2023-02-15T06:57:57.831Z,100.00
2023-02-15T07:00:44.820Z,100.00
2023-02-15T07:03:20.955Z,100.00
2023-02-15T07:06:10.821Z,100.00
2023-02-15T07:08:52.834Z,100.00
2023-02-15T07:11:58.849Z,100.00
2023-02-15T07:14:31.950Z,100.00
2023-02-15T07:17:35.020Z,100.00
2023-02-15T07:20:21.832Z,100.00
2023-02-15T07:23:15.846Z,100.00
2023-02-15T07:26:13.838Z,100.00
2023-02-15T07:29:07.853Z,100.00
2023-02-15T07:32:01.898Z,100.00
2023-02-15T07:34:48.787Z,100.00
2023-02-15T07:37:21.951Z,100.00
2023-02-15T07:40:08.830Z,100.00
2023-02-15T07:42:41.948Z,100.00
2023-02-15T07:45:28.853Z,100.00
2023-02-15T07:48:01.971Z,100.00
2023-02-15T07:50:48.836Z,100.00
2023-02-15T07:53:21.932Z,100.00
2023-02-15T07:56:17.839Z,100.00
2023-02-15T07:59:12.824Z,100.00
2023-02-15T08:02:06.851Z,100.00
2023-02-15T08:05:00.846Z,100.00
2023-02-15T08:07:54.841Z,100.00
2023-02-15T08:11:15.854Z,100.00
2023-02-15T08:13:57.150Z,100.00
2023-02-15T08:16:46.883Z,100.00
2023-02-15T08:19:25.935Z,100.00
2023-02-15T08:22:14.861Z,100.00
2023-02-15T08:24:47.950Z,100.00
2023-02-15T08:27:34.865Z,100.00
2023-02-15T08:30:08.018Z,100.00
2023-02-15T08:32:55.505Z,100.00
2023-02-15T08:35:28.959Z,100.00
2023-02-15T08:38:15.845Z,100.00
2023-02-15T08:40:48.963Z,100.00
2023-02-15T08:43:35.854Z,100.00
2023-02-15T08:46:09.019Z,100.00
2023-02-15T08:48:55.849Z,100.00
2023-02-15T08:51:34.971Z,100.00
2023-02-15T08:54:24.878Z,100.00
2023-02-15T08:57:04.963Z,100.00
2023-02-15T08:59:58.871Z,100.00
2023-02-15T09:02:45.871Z,100.00
2023-02-15T09:05:18.968Z,100.00
2023-02-15T09:08:05.890Z,100.00
2023-02-15T09:10:38.955Z,100.00
2023-02-15T09:13:25.965Z,100.00
2023-02-15T09:16:07.013Z,100.00
2023-02-15T09:18:54.874Z,100.00
2023-02-15T09:21:38.876Z,99.86
2023-02-15T09:24:25.859Z,95.79
2023-02-15T09:26:58.969Z,94.83
2023-02-15T09:29:45.865Z,95.36
2023-02-15T09:32:23.067Z,94.68
2023-02-15T09:35:09.880Z,93.69
2023-02-15T09:37:42.955Z,93.70
2023-02-15T09:40:29.884Z,93.03
2023-02-15T09:43:02.964Z,93.26
2023-02-15T09:46:04.919Z,91.80
2023-02-15T09:48:55.876Z,92.71
2023-02-15T09:52:29.894Z,92.63
2023-02-15T09:55:33.874Z,93.45
2023-02-15T09:58:22.902Z,94.14
2023-02-15T10:01:08.951Z,94.96
2023-02-15T10:04:08.909Z,95.30
2023-02-15T10:07:22.900Z,95.54
2023-02-15T10:10:15.878Z,95.41
2023-02-15T10:13:37.901Z,95.57
2023-02-15T10:16:42.917Z,95.75
2023-02-15T10:19:19.045Z,95.81
2023-02-15T10:22:38.882Z,95.29
2023-02-15T10:25:15.036Z,95.67
2023-02-15T10:28:01.897Z,95.29
2023-02-15T10:31:01.457Z,96.06
2023-02-15T10:33:50.906Z,96.35
2023-02-15T10:36:42.896Z,96.50
2023-02-15T10:39:41.913Z,96.46
2023-02-15T10:42:49.882Z,96.33
2023-02-15T10:45:32.000Z,96.24
2023-02-15T10:48:38.895Z,95.86
2023-02-15T10:51:20.015Z,96.10
2023-02-15T10:54:35.905Z,96.49
2023-02-15T10:57:30.918Z,96.62
2023-02-15T11:00:41.907Z,96.19
2023-02-15T11:03:47.918Z,96.29
2023-02-15T11:06:25.016Z,96.13
2023-02-15T11:09:18.895Z,96.44
2023-02-15T11:12:00.608Z,96.47
2023-02-15T11:15:03.898Z,96.39
2023-02-15T11:17:55.937Z,96.43
2023-02-15T11:20:58.919Z,96.01
2023-02-15T11:23:57.923Z,96.39
2023-02-15T11:27:07.960Z,96.44
2023-02-15T11:29:57.939Z,95.58
2023-02-15T11:32:53.964Z,95.63
2023-02-15T11:35:56.938Z,95.65
2023-02-15T11:38:46.931Z,95.43
2023-02-15T11:41:35.915Z,95.32
2023-02-15T11:44:40.937Z,95.65
2023-02-15T11:47:42.912Z,95.53
2023-02-15T11:50:34.938Z,95.61
2023-02-15T11:53:17.094Z,95.21
2023-02-15T11:56:03.952Z,95.54
2023-02-15T11:58:49.042Z,95.53
2023-02-15T12:01:38.939Z,95.79
2023-02-15T12:04:22.546Z,95.39
2023-02-15T12:07:14.942Z,95.51
2023-02-15T12:10:27.954Z,95.71
2023-02-15T12:13:33.942Z,95.80
2023-02-15T12:16:20.947Z,95.94
2023-02-15T12:19:01.967Z,95.78
2023-02-15T12:21:55.953Z,96.21
2023-02-15T12:24:45.938Z,96.01
2023-02-15T12:27:38.160Z,96.04
2023-02-15T12:30:35.968Z,95.10
2023-02-15T12:33:43.949Z,94.75
2023-02-15T12:36:38.944Z,95.50
2023-02-15T12:39:15.036Z,95.78
2023-02-15T12:42:01.997Z,96.08
2023-02-15T12:44:43.040Z,96.50
2023-02-15T12:47:30.973Z,96.39
2023-02-15T12:50:23.044Z,96.64
2023-02-15T12:53:30.964Z,96.99
2023-02-15T12:56:13.149Z,96.96
2023-02-15T12:59:12.955Z,97.13
2023-02-15T13:01:46.992Z,97.54
2023-02-15T13:04:35.943Z,97.14
2023-02-15T13:07:10.068Z,97.13
2023-02-15T13:09:57.982Z,97.12
2023-02-15T13:12:34.655Z,97.14
2023-02-15T13:15:33.973Z,97.14
2023-02-15T13:18:09.094Z,97.57
2023-02-15T13:20:56.973Z,97.65
2023-02-15T13:23:38.043Z,97.72
2023-02-15T13:26:28.980Z,97.64
2023-02-15T13:29:09.532Z,97.67
2023-02-15T13:31:57.076Z,97.69
2023-02-15T13:34:39.632Z,97.46
2023-02-15T13:37:31.967Z,96.80
2023-02-15T13:40:16.136Z,96.86
2023-02-15T13:43:09.973Z,97.08
2023-02-15T13:46:00.258Z,97.11
2023-02-15T13:49:24.981Z,97.25
2023-02-15T13:52:31.988Z,97.55
2023-02-15T13:55:28.121Z,97.10
2023-02-15T13:58:51.990Z,97.02
2023-02-15T14:01:58.119Z,96.98
2023-02-15T14:04:53.181Z,96.83
2023-02-15T14:07:45.992Z,97.34
2023-02-15T14:10:58.985Z,97.33
2023-02-15T14:13:50.162Z,97.55
2023-02-15T14:17:05.448Z,97.63
2023-02-15T14:20:02.165Z,97.82
2023-02-15T14:23:12.977Z,97.84
2023-02-15T14:26:00.005Z,97.78
2023-02-15T14:29:28.982Z,97.68
2023-02-15T14:32:19.071Z,97.91
2023-02-15T14:35:19.022Z,98.12
2023-02-15T14:38:11.006Z,98.34
2023-02-15T14:41:12.296Z,98.64
2023-02-15T14:44:16.965Z,98.67
2023-02-15T14:46:58.165Z,98.84
2023-02-15T14:49:46.978Z,98.89
2023-02-15T14:52:28.632Z,98.95
2023-02-15T14:55:21.994Z,99.11
2023-02-15T14:58:16.037Z,99.22
2023-02-15T15:01:27.018Z,99.52
2023-02-15T15:04:22.010Z,99.97
2023-02-15T15:07:14.004Z,99.83
2023-02-15T15:10:23.991Z,99.99
2023-02-15T15:13:45.017Z,100.00
2023-02-15T15:16:38.238Z,100.00
2023-02-15T15:20:00.048Z,100.00
2023-02-15T15:22:38.218Z,100.00
2023-02-15T15:25:41.015Z,100.00
2023-02-15T15:28:14.112Z,100.00
2023-02-15T15:31:02.136Z,100.00
2023-02-15T15:33:57.030Z,100.00
2023-02-15T15:36:51.028Z,100.00
2023-02-15T15:39:59.010Z,100.00
2023-02-15T15:42:58.995Z,100.00
2023-02-15T15:46:02.316Z,100.00
2023-02-15T15:48:56.009Z,100.00
2023-02-15T15:51:48.016Z,100.00
2023-02-15T15:54:27.181Z,100.00
2023-02-15T15:57:24.031Z,100.00
2023-02-15T16:00:00.622Z,100.00
2023-02-15T16:03:00.071Z,100.00
2023-02-15T16:05:33.392Z,100.00
2023-02-15T16:08:20.040Z,100.00
2023-02-15T16:10:53.124Z,100.00
2023-02-15T16:13:41.017Z,100.00
2023-02-15T16:16:14.195Z,100.00
2023-02-15T16:19:03.035Z,100.00
2023-02-15T16:21:40.154Z,100.00
2023-02-15T16:24:36.063Z,100.00
2023-02-15T16:27:34.124Z,100.00
2023-02-15T16:30:35.154Z,100.00
2023-02-15T16:33:28.036Z,100.00
2023-02-15T16:36:36.074Z,100.00
2023-02-15T16:39:31.026Z,100.00
2023-02-15T16:42:28.042Z,100.00
2023-02-15T16:45:29.038Z,100.00
2023-02-15T16:48:36.047Z,100.00
2023-02-15T16:51:16.040Z,100.00
2023-02-15T16:54:12.050Z,100.00
2023-02-15T16:57:06.043Z,100.00
2023-02-15T17:00:04.067Z,100.00
2023-02-15T17:03:06.087Z,100.00
2023-02-15T17:05:54.186Z,100.00
2023-02-15T17:08:50.075Z,100.00
2023-02-15T17:11:27.166Z,100.00
2023-02-15T17:14:17.065Z,100.00
2023-02-15T17:17:00.072Z,100.00
2023-02-15T17:20:01.110Z,100.00
2023-02-15T17:22:34.162Z,100.00
2023-02-15T17:25:32.049Z,100.00
2023-02-15T17:28:05.223Z,100.00
2023-02-15T17:30:54.051Z,100.00
2023-02-15T17:33:41.044Z,100.00
2023-02-15T17:36:30.056Z,100.00
2023-02-15T17:39:10.477Z,100.00
2023-02-15T17:42:00.104Z,100.00
2023-02-15T17:44:33.169Z,100.00
2023-02-15T17:47:30.139Z,100.00
2023-02-15T17:50:03.171Z,100.00
2023-02-15T17:52:50.068Z,100.00
2023-02-15T17:55:35.506Z,100.00
2023-02-15T17:58:26.060Z,100.00
2023-02-15T18:01:23.825Z,100.00
2023-02-15T18:04:29.113Z,100.00
2023-02-15T18:07:27.118Z,100.00
2023-02-15T18:10:44.108Z,100.00
2023-02-15T18:13:24.103Z,100.00
2023-02-15T18:16:18.101Z,100.00
2023-02-15T18:19:05.086Z,100.00
2023-02-15T18:21:47.105Z,100.00
2023-02-15T18:24:41.117Z,100.00
2023-02-15T18:27:28.108Z,100.00
2023-02-15T18:30:08.114Z,100.00
2023-02-15T18:32:58.126Z,100.00
2023-02-15T18:35:35.276Z,100.00
2023-02-15T18:38:22.072Z,100.00
2023-02-15T18:40:55.257Z,100.00
2023-02-15T18:43:42.078Z,100.00
2023-02-15T18:46:22.192Z,100.00
2023-02-15T18:49:09.114Z,100.00
2023-02-15T18:51:43.393Z,100.00
2023-02-15T18:54:32.103Z,100.00
2023-02-15T18:57:16.114Z,100.00
2023-02-15T19:00:03.087Z,100.00
2023-02-15T19:02:43.183Z,100.00
2023-02-15T19:05:38.118Z,100.00
2023-02-15T19:08:36.087Z,100.00
2023-02-15T19:11:28.476Z,100.00
2023-02-15T19:14:02.201Z,100.00
2023-02-15T19:16:49.135Z,100.00
2023-02-15T19:19:22.212Z,100.00
2023-02-15T19:22:09.100Z,100.00
2023-02-15T19:24:48.240Z,100.00
2023-02-15T19:27:42.108Z,100.00
2023-02-15T19:30:23.278Z,100.00
2023-02-15T19:33:12.106Z,100.00
2023-02-15T19:35:53.109Z,100.00
2023-02-15T19:38:48.104Z,100.00
2023-02-15T19:41:46.217Z,100.00
2023-02-15T19:44:33.236Z,100.00
2023-02-15T19:47:13.130Z,100.00
2023-02-15T19:50:10.093Z,100.00
2023-02-15T19:52:57.112Z,100.00
2023-02-15T19:55:45.092Z,100.00
2023-02-15T19:58:40.218Z,100.00
2023-02-15T20:01:34.113Z,100.00
2023-02-15T20:04:28.188Z,100.00
2023-02-15T20:07:28.158Z,100.00
2023-02-15T20:10:08.128Z,100.00
2023-02-15T20:12:55.120Z,100.00
2023-02-15T20:15:32.327Z,100.00
2023-02-15T20:18:21.870Z,100.00
2023-02-15T20:21:08.145Z,100.00
2023-02-15T20:23:55.147Z,100.00
2023-02-15T20:26:31.419Z,100.00
2023-02-15T20:29:21.131Z,100.00
2023-02-15T20:31:55.595Z,100.00
2023-02-15T20:34:42.117Z,100.00
2023-02-15T20:37:33.974Z,100.00
2023-02-15T20:40:24.106Z,100.00
2023-02-15T20:42:57.281Z,100.00
2023-02-15T20:45:44.121Z,100.00
2023-02-15T20:48:17.217Z,100.00
2023-02-15T20:51:07.211Z,100.00
2023-02-15T20:53:40.302Z,100.00
2023-02-15T20:56:31.332Z,100.00
2023-02-15T20:59:45.145Z,100.00
2023-02-15T21:02:39.191Z,100.00
2023-02-15T21:05:32.139Z,100.00
2023-02-15T21:08:06.269Z,100.00
2023-02-15T21:10:55.157Z,100.00
2023-02-15T21:13:43.123Z,100.00
2023-02-15T21:16:30.211Z,100.00
2023-02-15T21:19:03.252Z,100.00
2023-02-15T21:21:52.227Z,100.00
2023-02-15T21:24:34.432Z,100.00
2023-02-15T21:27:22.129Z,100.00
2023-02-15T21:29:55.298Z,100.00
2023-02-15T21:32:42.162Z,100.00
2023-02-15T21:35:18.325Z,100.00
2023-02-15T21:38:05.139Z,100.00
2023-02-15T21:40:39.236Z,100.00
2023-02-15T21:43:49.148Z,100.00
2023-02-15T21:46:50.173Z,100.00
2023-02-15T21:49:44.190Z,100.00
2023-02-15T21:52:31.136Z,100.00
2023-02-15T21:55:04.528Z,100.00
2023-02-15T21:57:59.208Z,100.00
2023-02-15T22:00:53.163Z,100.00
2023-02-15T22:03:42.172Z,100.00
2023-02-15T22:06:19.234Z,100.00
2023-02-15T22:09:06.150Z,100.00
2023-02-15T22:11:46.138Z,100.00
2023-02-15T22:14:54.160Z,100.00
2023-02-15T22:17:42.138Z,100.00
2023-02-15T22:20:32.174Z,100.00
2023-02-15T22:23:26.143Z,100.00
2023-02-15T22:26:18.140Z,100.00
2023-02-15T22:28:51.294Z,100.00
2023-02-15T22:31:38.215Z,100.00
2023-02-15T22:34:11.262Z,100.00
2023-02-15T22:36:58.164Z,100.00
2023-02-15T22:39:32.238Z,100.00
2023-02-15T22:42:34.189Z,100.00
2023-02-15T22:45:08.238Z,100.00
2023-02-15T22:47:59.154Z,100.00
2023-02-15T22:50:42.167Z,100.00
2023-02-15T22:53:29.177Z,100.00
2023-02-15T22:56:03.290Z,100.00
2023-02-15T22:58:57.158Z,100.00
2023-02-15T23:01:52.164Z,100.00
2023-02-15T23:04:46.152Z,100.00
2023-02-15T23:07:41.168Z,100.00
2023-02-15T23:10:37.174Z,100.00
2023-02-15T23:13:31.035Z,100.00
2023-02-15T23:16:07.272Z,100.00
2023-02-15T23:18:54.192Z,100.00
2023-02-15T23:21:33.279Z,100.00
2023-02-15T23:24:33.172Z,100.00
2023-02-15T23:27:31.197Z,100.00
2023-02-15T23:30:28.238Z,100.00
2023-02-15T23:33:18.193Z,100.00
2023-02-15T23:35:51.279Z,100.00
2023-02-15T23:38:39.193Z,100.00
2023-02-15T23:41:20.485Z,100.00
2023-02-15T23:44:10.183Z,100.00
2023-02-15T23:46:48.303Z,100.00
2023-02-15T23:49:35.177Z,100.00
2023-02-15T23:52:08.277Z,100.00
2023-02-15T23:54:55.202Z,100.00
2023-02-15T23:57:28.320Z,100.00
